sensor_id;sensor_type;location;lat;lon;timestamp;pressure;altitude;pressure_sealevel;temperature;humidity
61568;BME280;47462;59.172;17.196;2022-09-13T00:01:17;100508.78;;;14.01;80.98
61568;BME280;47462;59.172;17.196;2022-09-13T00:03:43;100505.22;;;14.02;80.98
61568;BME280;47462;59.172;17.196;2022-09-13T00:06:16;100499.06;;;14.03;81.20
61568;BME280;47462;59.172;17.196;2022-09-13T00:08:43;100492.75;;;14.07;81.07
61568;BME280;47462;59.172;17.196;2022-09-13T00:11:21;100461.25;;;13.88;81.03
61568;BME280;47462;59.172;17.196;2022-09-13T00:13:47;100495.94;;;14.14;81.14
61568;BME280;47462;59.172;17.196;2022-09-13T00:16:14;100487.38;;;14.11;81.25
61568;BME280;47462;59.172;17.196;2022-09-13T00:18:40;100485.44;;;14.14;81.13
61568;BME280;47462;59.172;17.196;2022-09-13T00:21:08;100484.31;;;14.20;80.93
61568;BME280;47462;59.172;17.196;2022-09-13T00:23:34;100478.53;;;14.12;80.59
61568;BME280;47462;59.172;17.196;2022-09-13T00:26:09;100484.59;;;14.14;80.64
61568;BME280;47462;59.172;17.196;2022-09-13T00:28:35;100475.00;;;14.13;80.70
61568;BME280;47462;59.172;17.196;2022-09-13T00:31:03;100473.16;;;14.15;80.77
61568;BME280;47462;59.172;17.196;2022-09-13T00:33:29;100444.81;;;14.04;80.89
61568;BME280;47462;59.172;17.196;2022-09-13T00:35:55;100466.78;;;14.20;80.82
61568;BME280;47462;59.172;17.196;2022-09-13T00:38:21;100445.16;;;14.15;80.93
61568;BME280;47462;59.172;17.196;2022-09-13T00:40:46;100451.50;;;14.28;80.86
61568;BME280;47462;59.172;17.196;2022-09-13T00:43:16;100449.53;;;14.34;80.73
61568;BME280;47462;59.172;17.196;2022-09-13T00:45:42;100441.56;;;14.35;80.74
61568;BME280;47462;59.172;17.196;2022-09-13T00:48:09;100440.78;;;14.33;80.88
61568;BME280;47462;59.172;17.196;2022-09-13T00:50:42;100388.41;;;14.13;80.63
61568;BME280;47462;59.172;17.196;2022-09-13T00:53:16;100425.53;;;14.41;80.78
61568;BME280;47462;59.172;17.196;2022-09-13T00:58:24;100380.84;;;14.24;80.83
61568;BME280;47462;59.172;17.196;2022-09-13T01:00:52;100370.22;;;14.27;80.49
61568;BME280;47462;59.172;17.196;2022-09-13T01:03:21;100410.16;;;14.51;80.54
61568;BME280;47462;59.172;17.196;2022-09-13T01:05:54;100397.25;;;14.47;80.81
61568;BME280;47462;59.172;17.196;2022-09-13T01:08:22;100403.81;;;14.55;80.93
61568;BME280;47462;59.172;17.196;2022-09-13T01:10:52;100315.09;;;14.09;80.61
61568;BME280;47462;59.172;17.196;2022-09-13T01:13:22;100387.84;;;14.60;80.70
61568;BME280;47462;59.172;17.196;2022-09-13T01:15:48;100392.25;;;14.59;80.72
61568;BME280;47462;59.172;17.196;2022-09-13T01:18:14;100375.50;;;14.62;80.66
61568;BME280;47462;59.172;17.196;2022-09-13T01:26:33;100342.31;;;14.61;80.81
61568;BME280;47462;59.172;17.196;2022-09-13T01:32:10;100338.03;;;14.58;81.31
61568;BME280;47462;59.172;17.196;2022-09-13T01:34:50;100332.94;;;14.55;81.63
61568;BME280;47462;59.172;17.196;2022-09-13T01:37:32;100327.59;;;14.57;81.53
61568;BME280;47462;59.172;17.196;2022-09-13T01:50:38;100279.56;;;14.55;81.02
61568;BME280;47462;59.172;17.196;2022-09-13T01:53:19;100293.94;;;14.65;81.37
61568;BME280;47462;59.172;17.196;2022-09-13T01:55:57;100295.63;;;14.66;81.66
61568;BME280;47462;59.172;17.196;2022-09-13T02:03:54;100159.22;;;13.96;82.08
61568;BME280;47462;59.172;17.196;2022-09-13T02:06:25;100260.09;;;14.59;82.21
61568;BME280;47462;59.172;17.196;2022-09-13T02:08:59;100271.75;;;14.71;82.35
61568;BME280;47462;59.172;17.196;2022-09-13T02:11:26;100186.72;;;14.22;82.34
61568;BME280;47462;59.172;17.196;2022-09-13T02:13:55;100263.13;;;14.69;82.59
61568;BME280;47462;59.172;17.196;2022-09-13T02:16:30;100256.00;;;14.71;82.60
61568;BME280;47462;59.172;17.196;2022-09-13T02:19:07;100252.38;;;14.73;82.89
61568;BME280;47462;59.172;17.196;2022-09-13T02:21:37;100252.22;;;14.76;83.07
61568;BME280;47462;59.172;17.196;2022-09-13T02:26:29;100242.28;;;14.82;82.86
61568;BME280;47462;59.172;17.196;2022-09-13T02:28:58;100238.59;;;14.86;82.78
61568;BME280;47462;59.172;17.196;2022-09-13T02:31:41;100241.22;;;14.86;82.53
61568;BME280;47462;59.172;17.196;2022-09-13T02:34:17;100206.69;;;14.76;82.74
61568;BME280;47462;59.172;17.196;2022-09-13T02:36:47;100216.44;;;14.90;83.07
61568;BME280;47462;59.172;17.196;2022-09-13T02:39:19;100178.75;;;14.75;82.86
61568;BME280;47462;59.172;17.196;2022-09-13T02:41:53;100193.84;;;14.87;83.18
61568;BME280;47462;59.172;17.196;2022-09-13T02:44:28;100196.03;;;14.95;82.89
61568;BME280;47462;59.172;17.196;2022-09-13T02:52:40;100161.28;;;14.90;82.94
61568;BME280;47462;59.172;17.196;2022-09-13T02:55:24;100138.22;;;14.79;82.81
61568;BME280;47462;59.172;17.196;2022-09-13T02:58:10;100167.81;;;14.98;82.83
61568;BME280;47462;59.172;17.196;2022-09-13T03:00:37;100157.97;;;15.02;82.66
61568;BME280;47462;59.172;17.196;2022-09-13T03:03:06;100149.16;;;15.03;82.40
61568;BME280;47462;59.172;17.196;2022-09-13T03:05:33;100146.69;;;15.00;82.53
61568;BME280;47462;59.172;17.196;2022-09-13T03:07:59;100152.63;;;15.04;82.40
61568;BME280;47462;59.172;17.196;2022-09-13T03:10:30;100132.63;;;15.01;82.09
61568;BME280;47462;59.172;17.196;2022-09-13T03:16:23;100120.16;;;15.05;81.74
61568;BME280;47462;59.172;17.196;2022-09-13T03:19:16;100121.16;;;15.02;81.86
61568;BME280;47462;59.172;17.196;2022-09-13T03:24:26;100115.91;;;15.02;81.75
61568;BME280;47462;59.172;17.196;2022-09-13T03:29:39;100112.84;;;15.10;81.03
61568;BME280;47462;59.172;17.196;2022-09-13T03:32:14;100109.38;;;15.09;80.91
61568;BME280;47462;59.172;17.196;2022-09-13T03:34:51;100106.75;;;15.09;80.87
61568;BME280;47462;59.172;17.196;2022-09-13T03:37:26;100102.34;;;15.10;80.75
61568;BME280;47462;59.172;17.196;2022-09-13T03:39:59;100105.41;;;15.18;80.61
61568;BME280;47462;59.172;17.196;2022-09-13T03:42:36;100104.47;;;15.19;80.25
61568;BME280;47462;59.172;17.196;2022-09-13T03:45:07;100080.84;;;15.03;80.38
61568;BME280;47462;59.172;17.196;2022-09-13T03:47:35;100088.28;;;15.11;80.24
61568;BME280;47462;59.172;17.196;2022-09-13T03:50:04;100082.94;;;15.12;80.20
61568;BME280;47462;59.172;17.196;2022-09-13T03:52:32;100054.66;;;15.02;79.67
61568;BME280;47462;59.172;17.196;2022-09-13T03:54:57;100088.78;;;15.18;80.04
61568;BME280;47462;59.172;17.196;2022-09-13T03:57:23;100083.19;;;15.24;79.91
61568;BME280;47462;59.172;17.196;2022-09-13T03:59:52;100077.91;;;15.24;79.80
61568;BME280;47462;59.172;17.196;2022-09-13T04:02:20;100047.16;;;15.10;79.45
61568;BME280;47462;59.172;17.196;2022-09-13T04:04:46;100034.28;;;15.05;79.79
61568;BME280;47462;59.172;17.196;2022-09-13T04:07:15;100062.91;;;15.26;79.97
61568;BME280;47462;59.172;17.196;2022-09-13T04:09:41;100047.88;;;15.28;80.12
61568;BME280;47462;59.172;17.196;2022-09-13T04:12:06;100030.59;;;15.24;80.01
61568;BME280;47462;59.172;17.196;2022-09-13T04:14:34;100024.56;;;15.22;79.99
61568;BME280;47462;59.172;17.196;2022-09-13T04:17:00;100039.25;;;15.26;79.98
61568;BME280;47462;59.172;17.196;2022-09-13T04:19:26;100012.56;;;15.18;80.22
61568;BME280;47462;59.172;17.196;2022-09-13T04:21:52;100030.16;;;15.31;80.03
61568;BME280;47462;59.172;17.196;2022-09-13T04:24:18;100023.84;;;15.34;80.18
61568;BME280;47462;59.172;17.196;2022-09-13T04:26:44;100023.09;;;15.32;80.19
61568;BME280;47462;59.172;17.196;2022-09-13T04:29:12;100002.81;;;15.20;80.21
61568;BME280;47462;59.172;17.196;2022-09-13T04:31:38;100019.38;;;15.36;80.28
61568;BME280;47462;59.172;17.196;2022-09-13T04:34:03;100002.91;;;15.32;80.14
61568;BME280;47462;59.172;17.196;2022-09-13T04:36:30;99991.84;;;15.27;79.80
61568;BME280;47462;59.172;17.196;2022-09-13T04:38:56;100009.50;;;15.40;79.86
61568;BME280;47462;59.172;17.196;2022-09-13T04:41:21;99987.31;;;15.29;79.66
61568;BME280;47462;59.172;17.196;2022-09-13T04:43:49;100003.41;;;15.39;79.74
61568;BME280;47462;59.172;17.196;2022-09-13T04:46:15;99997.38;;;15.37;79.70
61568;BME280;47462;59.172;17.196;2022-09-13T04:48:40;100001.34;;;15.44;79.58
61568;BME280;47462;59.172;17.196;2022-09-13T04:51:06;99961.41;;;15.23;79.35
61568;BME280;47462;59.172;17.196;2022-09-13T04:53:32;99999.25;;;15.49;79.38
61568;BME280;47462;59.172;17.196;2022-09-13T04:56:02;99988.56;;;15.52;79.26
61568;BME280;47462;59.172;17.196;2022-09-13T04:58:28;99989.13;;;15.58;79.32
61568;BME280;47462;59.172;17.196;2022-09-13T05:01:02;99988.94;;;15.61;79.02
61568;BME280;47462;59.172;17.196;2022-09-13T05:03:29;99947.81;;;15.45;78.89
61568;BME280;47462;59.172;17.196;2022-09-13T05:06:00;99957.19;;;15.49;78.80
61568;BME280;47462;59.172;17.196;2022-09-13T05:08:26;99927.16;;;15.39;78.69
61568;BME280;47462;59.172;17.196;2022-09-13T05:10:51;99925.38;;;15.40;78.81
61568;BME280;47462;59.172;17.196;2022-09-13T05:13:16;99961.50;;;15.65;78.80
61568;BME280;47462;59.172;17.196;2022-09-13T05:15:42;99941.03;;;15.56;78.88
61568;BME280;47462;59.172;17.196;2022-09-13T05:18:07;99906.88;;;15.41;78.76
61568;BME280;47462;59.172;17.196;2022-09-13T05:20:33;99933.72;;;15.61;78.77
61568;BME280;47462;59.172;17.196;2022-09-13T05:22:58;99945.63;;;15.66;78.77
61568;BME280;47462;59.172;17.196;2022-09-13T05:25:23;99941.88;;;15.70;78.53
61568;BME280;47462;59.172;17.196;2022-09-13T05:27:49;99927.13;;;15.68;78.49
61568;BME280;47462;59.172;17.196;2022-09-13T05:30:15;99902.66;;;15.53;78.36
61568;BME280;47462;59.172;17.196;2022-09-13T05:32:40;99929.66;;;15.69;78.34
61568;BME280;47462;59.172;17.196;2022-09-13T05:35:06;99909.00;;;15.63;78.29
61568;BME280;47462;59.172;17.196;2022-09-13T05:37:32;99925.25;;;15.70;78.63
61568;BME280;47462;59.172;17.196;2022-09-13T05:39:58;99922.44;;;15.73;78.63
61568;BME280;47462;59.172;17.196;2022-09-13T05:42:23;99899.34;;;15.64;78.76
61568;BME280;47462;59.172;17.196;2022-09-13T05:44:48;99914.75;;;15.70;78.96
61568;BME280;47462;59.172;17.196;2022-09-13T05:47:14;99905.97;;;15.69;79.50
61568;BME280;47462;59.172;17.196;2022-09-13T05:49:39;99898.56;;;15.62;80.10
61568;BME280;47462;59.172;17.196;2022-09-13T05:52:05;99894.09;;;15.49;80.52
61568;BME280;47462;59.172;17.196;2022-09-13T05:54:30;99900.75;;;15.55;81.28
61568;BME280;47462;59.172;17.196;2022-09-13T05:56:57;99899.25;;;15.51;81.83
61568;BME280;47462;59.172;17.196;2022-09-13T05:59:22;99898.78;;;15.44;82.25
61568;BME280;47462;59.172;17.196;2022-09-13T06:01:48;99900.00;;;15.39;82.70
61568;BME280;47462;59.172;17.196;2022-09-13T06:04:13;99896.00;;;15.33;82.83
61568;BME280;47462;59.172;17.196;2022-09-13T06:06:38;99865.28;;;15.19;82.98
61568;BME280;47462;59.172;17.196;2022-09-13T06:09:04;99884.78;;;15.29;83.48
61568;BME280;47462;59.172;17.196;2022-09-13T06:11:31;99889.97;;;15.31;83.58
61568;BME280;47462;59.172;17.196;2022-09-13T06:13:56;99852.88;;;15.07;84.18
61568;BME280;47462;59.172;17.196;2022-09-13T06:16:22;99856.19;;;15.10;84.15
61568;BME280;47462;59.172;17.196;2022-09-13T06:18:47;99871.19;;;15.23;84.42
61568;BME280;47462;59.172;17.196;2022-09-13T06:21:15;99872.53;;;15.30;84.67
61568;BME280;47462;59.172;17.196;2022-09-13T06:23:46;99873.72;;;15.24;84.79
61568;BME280;47462;59.172;17.196;2022-09-13T06:26:14;99873.72;;;15.24;84.88
61568;BME280;47462;59.172;17.196;2022-09-13T06:28:41;99868.22;;;15.14;84.71
61568;BME280;47462;59.172;17.196;2022-09-13T06:31:11;99836.84;;;14.97;84.45
61568;BME280;47462;59.172;17.196;2022-09-13T06:33:39;99857.41;;;15.05;84.25
61568;BME280;47462;59.172;17.196;2022-09-13T06:36:07;99828.50;;;14.90;84.21
61568;BME280;47462;59.172;17.196;2022-09-13T06:38:33;99826.81;;;14.89;83.89
61568;BME280;47462;59.172;17.196;2022-09-13T06:41:09;99810.66;;;14.81;83.88
61568;BME280;47462;59.172;17.196;2022-09-13T06:43:35;99812.06;;;14.87;84.05
61568;BME280;47462;59.172;17.196;2022-09-13T06:46:03;99843.97;;;15.09;84.28
61568;BME280;47462;59.172;17.196;2022-09-13T06:48:31;99835.34;;;15.07;84.40
61568;BME280;47462;59.172;17.196;2022-09-13T06:50:58;99820.34;;;14.95;84.63
61568;BME280;47462;59.172;17.196;2022-09-13T06:53:24;99837.41;;;15.02;85.03
61568;BME280;47462;59.172;17.196;2022-09-13T06:56:05;99822.00;;;14.96;85.17
61568;BME280;47462;59.172;17.196;2022-09-13T06:58:32;99809.53;;;15.00;85.09
61568;BME280;47462;59.172;17.196;2022-09-13T07:01:15;99780.63;;;14.85;84.97
61568;BME280;47462;59.172;17.196;2022-09-13T07:03:47;99803.25;;;15.02;85.18
61568;BME280;47462;59.172;17.196;2022-09-13T07:06:20;99789.00;;;14.92;85.16
61568;BME280;47462;59.172;17.196;2022-09-13T07:08:47;99787.13;;;14.94;85.28
61568;BME280;47462;59.172;17.196;2022-09-13T07:11:15;99783.84;;;14.90;85.30
61568;BME280;47462;59.172;17.196;2022-09-13T07:13:46;99780.19;;;14.78;84.99
61568;BME280;47462;59.172;17.196;2022-09-13T07:16:13;99781.78;;;14.81;84.74
61568;BME280;47462;59.172;17.196;2022-09-13T07:18:38;99787.31;;;14.76;84.52
61568;BME280;47462;59.172;17.196;2022-09-13T07:21:08;99781.47;;;14.71;84.36
61568;BME280;47462;59.172;17.196;2022-09-13T07:23:36;99773.13;;;14.65;84.36
61568;BME280;47462;59.172;17.196;2022-09-13T07:26:03;99772.94;;;14.68;84.46
61568;BME280;47462;59.172;17.196;2022-09-13T07:28:37;99763.47;;;14.65;84.40
61568;BME280;47462;59.172;17.196;2022-09-13T07:31:07;99761.91;;;14.62;84.89
61568;BME280;47462;59.172;17.196;2022-09-13T07:33:33;99686.28;;;14.24;84.82
61568;BME280;47462;59.172;17.196;2022-09-13T07:35:59;99753.44;;;14.72;85.02
61568;BME280;47462;59.172;17.196;2022-09-13T07:38:26;99695.75;;;14.41;85.16
61568;BME280;47462;59.172;17.196;2022-09-13T07:40:53;99719.75;;;14.50;85.17
61568;BME280;47462;59.172;17.196;2022-09-13T07:43:20;99750.25;;;14.67;85.34
61568;BME280;47462;59.172;17.196;2022-09-13T07:45:45;99757.28;;;14.66;85.37
61568;BME280;47462;59.172;17.196;2022-09-13T07:48:11;99749.31;;;14.68;85.45
61568;BME280;47462;59.172;17.196;2022-09-13T07:50:36;99708.69;;;14.44;85.26
61568;BME280;47462;59.172;17.196;2022-09-13T07:53:02;99743.31;;;14.66;85.35
61568;BME280;47462;59.172;17.196;2022-09-13T07:55:28;99697.78;;;14.36;84.95
61568;BME280;47462;59.172;17.196;2022-09-13T07:57:55;99733.25;;;14.58;84.73
61568;BME280;47462;59.172;17.196;2022-09-13T08:00:22;99708.59;;;14.46;84.50
61568;BME280;47462;59.172;17.196;2022-09-13T08:02:48;99714.75;;;14.45;84.25
61568;BME280;47462;59.172;17.196;2022-09-13T08:05:14;99692.16;;;14.28;84.25
61568;BME280;47462;59.172;17.196;2022-09-13T08:07:39;99699.47;;;14.37;84.38
61568;BME280;47462;59.172;17.196;2022-09-13T08:10:04;99717.38;;;14.45;84.07
61568;BME280;47462;59.172;17.196;2022-09-13T08:12:30;99717.28;;;14.47;84.16
61568;BME280;47462;59.172;17.196;2022-09-13T08:14:55;99698.38;;;14.41;83.99
61568;BME280;47462;59.172;17.196;2022-09-13T08:17:21;99702.47;;;14.45;84.40
61568;BME280;47462;59.172;17.196;2022-09-13T08:19:47;99709.91;;;14.53;84.28
61568;BME280;47462;59.172;17.196;2022-09-13T08:22:12;99603.13;;;13.96;84.55
61568;BME280;47462;59.172;17.196;2022-09-13T08:24:37;99704.06;;;14.48;84.82
61568;BME280;47462;59.172;17.196;2022-09-13T08:27:03;99630.31;;;14.09;84.60
61568;BME280;47462;59.172;17.196;2022-09-13T08:29:28;99635.53;;;14.24;84.66
61568;BME280;47462;59.172;17.196;2022-09-13T08:31:54;99674.91;;;14.53;84.76
61568;BME280;47462;59.172;17.196;2022-09-13T08:34:19;99652.59;;;14.45;84.57
61568;BME280;47462;59.172;17.196;2022-09-13T08:36:45;99606.69;;;14.24;84.45
61568;BME280;47462;59.172;17.196;2022-09-13T08:39:11;99654.34;;;14.61;84.76
61568;BME280;47462;59.172;17.196;2022-09-13T08:44:34;99658.63;;;14.62;84.61
61568;BME280;47462;59.172;17.196;2022-09-13T08:47:23;99648.13;;;14.62;84.58
61568;BME280;47462;59.172;17.196;2022-09-13T08:50:00;99633.50;;;14.58;84.52
61568;BME280;47462;59.172;17.196;2022-09-13T08:52:32;99617.75;;;14.58;84.49
61568;BME280;47462;59.172;17.196;2022-09-13T08:55:07;99601.63;;;14.64;84.35
61568;BME280;47462;59.172;17.196;2022-09-13T08:57:48;99619.03;;;14.79;84.46
61568;BME280;47462;59.172;17.196;2022-09-13T09:05:46;99552.31;;;14.82;83.80
61568;BME280;47462;59.172;17.196;2022-09-13T09:10:47;99570.97;;;14.92;83.50
61568;BME280;47462;59.172;17.196;2022-09-13T09:16:04;99558.78;;;15.04;83.71
61568;BME280;47462;59.172;17.196;2022-09-13T09:18:37;99550.81;;;15.05;83.81
61568;BME280;47462;59.172;17.196;2022-09-13T09:21:10;99514.50;;;14.85;83.85
61568;BME280;47462;59.172;17.196;2022-09-13T09:23:54;99498.94;;;14.82;84.05
61568;BME280;47462;59.172;17.196;2022-09-13T09:26:25;99491.06;;;14.82;84.30
61568;BME280;47462;59.172;17.196;2022-09-13T09:34:51;99490.25;;;14.94;85.37
61568;BME280;47462;59.172;17.196;2022-09-13T09:37:22;99486.31;;;15.14;85.23
61568;BME280;47462;59.172;17.196;2022-09-13T09:39:52;99484.13;;;15.21;85.24
61568;BME280;47462;59.172;17.196;2022-09-13T09:42:24;99473.28;;;15.12;85.01
61568;BME280;47462;59.172;17.196;2022-09-13T09:44:56;99448.84;;;14.97;85.35
61568;BME280;47462;59.172;17.196;2022-09-13T09:47:27;99465.59;;;15.09;85.59
61568;BME280;47462;59.172;17.196;2022-09-13T09:50:09;99472.44;;;15.12;85.47
61568;BME280;47462;59.172;17.196;2022-09-13T09:57:52;99474.41;;;14.95;86.53
61568;BME280;47462;59.172;17.196;2022-09-13T10:00:21;99472.91;;;14.91;86.91
61568;BME280;47462;59.172;17.196;2022-09-13T10:02:51;99416.09;;;14.50;86.86
61568;BME280;47462;59.172;17.196;2022-09-13T10:05:20;99465.34;;;14.87;86.95
61568;BME280;47462;59.172;17.196;2022-09-13T10:08:01;99456.41;;;14.89;86.98
61568;BME280;47462;59.172;17.196;2022-09-13T10:10:35;99453.69;;;14.91;87.13
61568;BME280;47462;59.172;17.196;2022-09-13T10:13:04;99450.13;;;14.92;87.14
61568;BME280;47462;59.172;17.196;2022-09-13T10:15:33;99435.31;;;14.91;87.60
61568;BME280;47462;59.172;17.196;2022-09-13T10:18:14;99446.44;;;14.94;87.69
61568;BME280;47462;59.172;17.196;2022-09-13T10:20:41;99433.97;;;14.98;87.68
61568;BME280;47462;59.172;17.196;2022-09-13T10:25:38;99415.16;;;15.04;87.87
61568;BME280;47462;59.172;17.196;2022-09-13T10:28:10;99424.16;;;15.13;87.63
61568;BME280;47462;59.172;17.196;2022-09-13T10:30:46;99412.41;;;15.06;87.79
61568;BME280;47462;59.172;17.196;2022-09-13T10:36:06;99425.47;;;15.33;87.30
61568;BME280;47462;59.172;17.196;2022-09-13T10:38:38;99429.31;;;15.40;87.28
61568;BME280;47462;59.172;17.196;2022-09-13T10:41:28;99424.94;;;15.41;87.08
61568;BME280;47462;59.172;17.196;2022-09-13T10:43:59;99418.38;;;15.46;86.94
61568;BME280;47462;59.172;17.196;2022-09-13T10:46:28;99418.72;;;15.55;86.86
61568;BME280;47462;59.172;17.196;2022-09-13T10:48:55;99397.69;;;15.55;86.70
61568;BME280;47462;59.172;17.196;2022-09-13T10:56:36;99302.56;;;15.24;86.32
61568;BME280;47462;59.172;17.196;2022-09-13T10:59:15;99393.69;;;15.99;86.15
61568;BME280;47462;59.172;17.196;2022-09-13T11:02:13;99339.88;;;15.66;86.37
61568;BME280;47462;59.172;17.196;2022-09-13T11:04:59;99371.53;;;15.90;86.34
61568;BME280;47462;59.172;17.196;2022-09-13T11:10:28;99358.25;;;15.92;86.22
61568;BME280;47462;59.172;17.196;2022-09-13T11:13:14;99323.78;;;15.70;86.25
61568;BME280;47462;59.172;17.196;2022-09-13T11:15:58;99364.34;;;15.92;86.37
61568;BME280;47462;59.172;17.196;2022-09-13T11:21:18;99332.44;;;15.97;86.49
61568;BME280;47462;59.172;17.196;2022-09-13T11:26:29;99333.34;;;15.84;87.29
61568;BME280;47462;59.172;17.196;2022-09-13T11:29:03;99318.41;;;15.85;87.66
61568;BME280;47462;59.172;17.196;2022-09-13T11:31:41;99294.88;;;15.95;87.97
61568;BME280;47462;59.172;17.196;2022-09-13T11:50:52;99286.16;;;16.30;87.17
61568;BME280;47462;59.172;17.196;2022-09-13T11:56:18;99269.25;;;16.21;87.17
61568;BME280;47462;59.172;17.196;2022-09-13T12:01:50;99247.06;;;16.01;87.21
61568;BME280;47462;59.172;17.196;2022-09-13T12:07:23;99267.63;;;15.96;87.20
61568;BME280;47462;59.172;17.196;2022-09-13T12:09:55;99287.09;;;15.93;87.24
61568;BME280;47462;59.172;17.196;2022-09-13T12:12:24;99286.84;;;15.85;86.37
61568;BME280;47462;59.172;17.196;2022-09-13T12:15:09;99269.16;;;15.50;84.75
61568;BME280;47462;59.172;17.196;2022-09-13T12:17:42;99271.72;;;15.39;84.65
61568;BME280;47462;59.172;17.196;2022-09-13T12:20:21;99282.88;;;15.29;84.44
61568;BME280;47462;59.172;17.196;2022-09-13T12:22:53;99286.28;;;15.19;84.63
61568;BME280;47462;59.172;17.196;2022-09-13T12:25:22;99286.94;;;15.09;84.39
61568;BME280;47462;59.172;17.196;2022-09-13T12:28:02;99275.16;;;15.02;84.37
61568;BME280;47462;59.172;17.196;2022-09-13T12:30:51;99275.16;;;15.02;84.33
61568;BME280;47462;59.172;17.196;2022-09-13T12:33:18;99285.25;;;14.95;83.96
61568;BME280;47462;59.172;17.196;2022-09-13T12:41:46;99244.09;;;14.44;85.64
61568;BME280;47462;59.172;17.196;2022-09-13T12:53:16;99290.91;;;14.51;84.91
61568;BME280;47462;59.172;17.196;2022-09-13T12:56:23;99280.41;;;14.51;85.11
61568;BME280;47462;59.172;17.196;2022-09-13T13:01:17;99263.13;;;14.61;84.63
61568;BME280;47462;59.172;17.196;2022-09-13T13:04:09;99262.81;;;14.66;84.42
61568;BME280;47462;59.172;17.196;2022-09-13T13:06:54;99209.22;;;14.42;84.08
61568;BME280;47462;59.172;17.196;2022-09-13T13:11:59;99233.16;;;14.89;83.72
61568;BME280;47462;59.172;17.196;2022-09-13T13:14:43;99187.56;;;14.77;83.33
61568;BME280;47462;59.172;17.196;2022-09-13T13:23:19;99220.00;;;15.39;82.08
61568;BME280;47462;59.172;17.196;2022-09-13T13:29:11;99228.59;;;15.41;81.68
61568;BME280;47462;59.172;17.196;2022-09-13T13:31:40;99224.81;;;15.45;81.57
61568;BME280;47462;59.172;17.196;2022-09-13T13:41:54;99211.41;;;16.77;78.09
61568;BME280;47462;59.172;17.196;2022-09-13T13:46:48;99224.00;;;17.08;76.40
61568;BME280;47462;59.172;17.196;2022-09-13T13:57:32;99214.47;;;16.26;77.79
61568;BME280;47462;59.172;17.196;2022-09-13T14:05:21;99219.59;;;16.05;78.40
61568;BME280;47462;59.172;17.196;2022-09-13T14:21:32;99192.25;;;18.07;72.72
61568;BME280;47462;59.172;17.196;2022-09-13T14:24:17;99190.06;;;18.64;71.10
61568;BME280;47462;59.172;17.196;2022-09-13T14:26:48;99160.44;;;19.11;68.36
61568;BME280;47462;59.172;17.196;2022-09-13T14:29:17;99145.84;;;18.66;68.04
61568;BME280;47462;59.172;17.196;2022-09-13T14:31:55;99189.53;;;19.11;68.08
61568;BME280;47462;59.172;17.196;2022-09-13T14:34:31;99158.50;;;18.72;67.84
61568;BME280;47462;59.172;17.196;2022-09-13T14:37:05;99189.34;;;18.31;70.04
61568;BME280;47462;59.172;17.196;2022-09-13T14:39:56;99182.22;;;17.68;71.50
61568;BME280;47462;59.172;17.196;2022-09-13T14:42:22;99188.91;;;18.05;70.89
61568;BME280;47462;59.172;17.196;2022-09-13T14:44:47;99185.47;;;17.93;70.98
61568;BME280;47462;59.172;17.196;2022-09-13T14:49:52;99122.91;;;16.98;73.17
61568;BME280;47462;59.172;17.196;2022-09-13T14:52:23;99176.44;;;17.09;73.91
61568;BME280;47462;59.172;17.196;2022-09-13T14:54:55;99155.72;;;16.82;74.77
61568;BME280;47462;59.172;17.196;2022-09-13T14:57:30;99144.97;;;16.51;75.77
61568;BME280;47462;59.172;17.196;2022-09-13T15:00:04;99185.41;;;16.50;76.31
61568;BME280;47462;59.172;17.196;2022-09-13T15:02:36;99161.94;;;16.25;77.37
61568;BME280;47462;59.172;17.196;2022-09-13T15:05:05;99174.03;;;16.27;77.81
61568;BME280;47462;59.172;17.196;2022-09-13T15:07:37;99167.19;;;16.13;78.51
61568;BME280;47462;59.172;17.196;2022-09-13T15:10:23;99172.69;;;16.10;78.69
61568;BME280;47462;59.172;17.196;2022-09-13T15:15:32;99166.38;;;16.13;78.99
61568;BME280;47462;59.172;17.196;2022-09-13T15:18:01;99154.50;;;16.07;79.22
61568;BME280;47462;59.172;17.196;2022-09-13T15:20:30;99165.75;;;16.09;79.49
61568;BME280;47462;59.172;17.196;2022-09-13T15:23:30;99163.88;;;16.56;78.63
61568;BME280;47462;59.172;17.196;2022-09-13T15:26:11;99160.81;;;17.29;76.39
61568;BME280;47462;59.172;17.196;2022-09-13T15:31:05;99155.94;;;17.78;73.79
61568;BME280;47462;59.172;17.196;2022-09-13T15:33:33;99038.63;;;16.86;73.97
61568;BME280;47462;59.172;17.196;2022-09-13T15:36:31;99153.41;;;17.23;74.93
61568;BME280;47462;59.172;17.196;2022-09-13T15:39:01;99126.50;;;16.85;75.74
61568;BME280;47462;59.172;17.196;2022-09-13T15:41:30;99156.31;;;16.74;76.46
61568;BME280;47462;59.172;17.196;2022-09-13T15:43:57;99149.03;;;16.44;77.33
61568;BME280;47462;59.172;17.196;2022-09-13T15:46:22;99095.06;;;16.04;77.77
61568;BME280;47462;59.172;17.196;2022-09-13T15:48:52;99157.16;;;16.18;78.24
61568;BME280;47462;59.172;17.196;2022-09-13T15:51:18;99154.50;;;16.18;78.69
61568;BME280;47462;59.172;17.196;2022-09-13T15:53:44;99155.00;;;16.12;78.82
61568;BME280;47462;59.172;17.196;2022-09-13T15:56:23;99155.59;;;16.16;79.10
61568;BME280;47462;59.172;17.196;2022-09-13T15:58:51;99156.66;;;16.25;79.16
61568;BME280;47462;59.172;17.196;2022-09-13T16:01:16;99151.53;;;16.23;79.24
61568;BME280;47462;59.172;17.196;2022-09-13T16:03:42;99150.94;;;16.19;79.25
61568;BME280;47462;59.172;17.196;2022-09-13T16:06:07;99143.63;;;16.12;79.22
61568;BME280;47462;59.172;17.196;2022-09-13T16:08:37;99137.38;;;16.01;79.95
61568;BME280;47462;59.172;17.196;2022-09-13T16:11:03;99123.88;;;15.95;79.96
61568;BME280;47462;59.172;17.196;2022-09-13T16:13:28;99151.13;;;15.94;80.04